createdAt,value
2022-10-14T00:03:45.305Z,8.60
2022-10-14T00:08:49.420Z,7.32
2022-10-14T00:14:06.571Z,9.00
2022-10-14T00:19:11.049Z,7.32
2022-10-14T00:24:15.847Z,8.13
2022-10-14T00:29:19.615Z,7.53
2022-10-14T00:34:22.905Z,8.13
2022-10-14T00:39:26.482Z,7.43
2022-10-14T00:44:36.147Z,7.72
2022-10-14T00:49:53.176Z,7.07
2022-10-14T00:55:05.633Z,7.25
2022-10-14T01:05:20.115Z,6.55
2022-10-14T01:11:05.729Z,6.65
2022-10-14T01:16:18.227Z,6.40
2022-10-14T01:21:48.810Z,6.50
2022-10-14T01:27:31.098Z,6.15
2022-10-14T01:32:50.990Z,7.05
2022-10-14T01:38:01.008Z,7.38
2022-10-14T01:43:07.450Z,7.63
2022-10-14T01:48:28.265Z,7.45
2022-10-14T01:53:53.793Z,7.28
2022-10-14T01:59:01.507Z,6.90
2022-10-14T02:04:19.699Z,7.78
2022-10-14T02:09:37.518Z,7.25
2022-10-14T02:15:15.640Z,6.20
2022-10-14T02:20:49.988Z,5.70
2022-10-14T02:26:14.333Z,6.60
2022-10-14T02:31:19.843Z,6.88
2022-10-14T02:36:25.818Z,7.00
2022-10-14T02:41:35.437Z,6.85
2022-10-14T02:46:43.080Z,6.15
2022-10-14T02:51:59.648Z,6.50
2022-10-14T02:57:03.453Z,6.13
2022-10-14T03:02:07.830Z,6.05
2022-10-14T03:07:16.641Z,6.45
2022-10-14T03:12:25.520Z,5.93
2022-10-14T03:17:31.707Z,5.85
2022-10-14T03:22:40.838Z,6.05
2022-10-14T03:27:58.982Z,6.50
2022-10-14T03:33:15.280Z,6.28
2022-10-14T03:38:33.419Z,6.28
2022-10-14T03:43:38.711Z,5.93
2022-10-14T03:48:43.492Z,6.72
2022-10-14T03:53:47.399Z,6.60
2022-10-14T03:58:57.576Z,6.93
2022-10-14T04:04:01.778Z,6.68
2022-10-14T04:09:08.191Z,6.45
2022-10-14T04:19:25.747Z,5.88
2022-10-14T04:24:30.815Z,6.72
2022-10-14T04:29:35.967Z,6.03
2022-10-14T04:34:46.091Z,6.50
2022-10-14T04:40:06.454Z,7.22
2022-10-14T04:45:17.053Z,6.40
2022-10-14T04:50:27.769Z,6.85
2022-10-14T04:56:09.852Z,6.68
2022-10-14T05:01:19.115Z,5.93
2022-10-14T05:06:36.072Z,6.88
2022-10-14T05:11:41.488Z,5.57
2022-10-14T05:16:47.505Z,6.43
2022-10-14T05:21:54.750Z,5.10
2022-10-14T05:27:04.005Z,6.15
2022-10-14T05:32:09.314Z,5.40
2022-10-14T05:37:21.222Z,5.07
2022-10-14T05:42:28.453Z,6.57
2022-10-14T05:47:49.501Z,6.25
2022-10-14T05:52:55.207Z,5.30
2022-10-14T05:58:05.060Z,7.03
2022-10-14T06:03:14.656Z,6.03
2022-10-14T06:08:31.032Z,5.72
2022-10-14T06:13:36.443Z,6.13
2022-10-14T06:18:40.566Z,5.63
2022-10-14T06:23:44.600Z,5.32
2022-10-14T06:28:50.226Z,6.50
2022-10-14T06:33:56.429Z,5.10
2022-10-14T06:39:00.772Z,6.25
2022-10-14T06:44:04.137Z,5.15
2022-10-14T06:49:07.791Z,7.68
2022-10-14T06:54:24.949Z,5.55
2022-10-14T06:59:28.470Z,5.90
2022-10-14T07:04:45.173Z,8.32
2022-10-14T07:09:49.649Z,7.90
2022-10-14T07:15:06.346Z,7.22
2022-10-14T07:20:10.311Z,5.38
2022-10-14T07:25:26.230Z,5.28
2022-10-14T07:30:29.577Z,6.50
2022-10-14T07:35:33.008Z,11.43
2022-10-14T07:40:36.675Z,6.93
2022-10-14T07:45:41.390Z,4.80
2022-10-14T07:50:50.149Z,5.60
2022-10-14T07:55:53.927Z,4.93
2022-10-14T08:01:25.108Z,4.18
2022-10-14T08:06:28.595Z,4.32
2022-10-14T08:11:32.094Z,4.28
2022-10-14T08:16:36.547Z,4.80
2022-10-14T08:21:41.422Z,4.75
2022-10-14T08:26:58.397Z,5.03
2022-10-14T08:32:02.056Z,5.25
2022-10-14T08:37:05.324Z,5.00
2022-10-14T08:42:29.751Z,4.95
2022-10-14T08:47:41.285Z,6.28
2022-10-14T08:52:55.991Z,7.13
2022-10-14T08:58:10.416Z,5.80
2022-10-14T09:03:31.039Z,5.03
2022-10-14T09:08:43.888Z,5.40
2022-10-14T09:14:06.654Z,5.20
2022-10-14T09:19:19.048Z,4.65
2022-10-14T09:24:26.731Z,5.13
2022-10-14T09:30:00.633Z,5.85
2022-10-14T09:35:13.465Z,4.80
2022-10-14T09:40:39.783Z,5.25
2022-10-14T09:46:01.738Z,5.10
2022-10-14T09:51:32.241Z,4.97
2022-10-14T09:56:41.685Z,6.95
2022-10-14T10:01:58.105Z,5.70
2022-10-14T10:07:05.253Z,5.55
2022-10-14T10:12:25.401Z,5.38
2022-10-14T10:17:31.998Z,5.40
2022-10-14T10:22:35.779Z,5.40
2022-10-14T10:27:46.274Z,5.07
2022-10-14T10:33:11.871Z,4.40
2022-10-14T10:38:46.580Z,4.28
2022-10-14T10:44:08.473Z,4.47
2022-10-14T10:49:33.646Z,5.25
2022-10-14T10:55:13.610Z,4.68
2022-10-14T11:00:45.004Z,4.75
2022-10-14T11:06:02.940Z,5.70
2022-10-14T11:11:26.629Z,5.05
2022-10-14T11:16:35.544Z,5.20
2022-10-14T11:21:46.596Z,4.57
2022-10-14T11:27:25.131Z,5.38
2022-10-14T11:32:37.444Z,5.55
2022-10-14T11:38:07.520Z,5.82
2022-10-14T11:43:37.192Z,7.07
2022-10-14T11:48:52.957Z,6.05
2022-10-14T11:54:09.031Z,5.43
2022-10-14T11:59:18.486Z,6.55
2022-10-14T12:04:31.663Z,5.65
2022-10-14T12:09:57.433Z,5.72
2022-10-14T12:15:22.439Z,5.90
2022-10-14T12:20:48.410Z,6.05
2022-10-14T12:26:19.634Z,6.00
2022-10-14T12:31:28.815Z,5.60
2022-10-14T12:36:32.534Z,6.82
2022-10-14T12:42:09.967Z,5.97
2022-10-14T12:47:30.360Z,6.53
2022-10-14T12:52:37.488Z,6.70
2022-10-14T12:57:42.362Z,5.93
2022-10-14T13:02:47.592Z,6.88
2022-10-14T13:08:12.427Z,6.20
2022-10-14T13:13:40.627Z,7.53
2022-10-14T13:18:48.248Z,6.15
2022-10-14T13:24:17.726Z,7.15
2022-10-14T13:29:20.948Z,7.53
2022-10-14T13:35:04.870Z,7.13
2022-10-14T13:40:40.435Z,7.20
2022-10-14T13:46:09.470Z,6.90
2022-10-14T13:51:31.690Z,7.32
2022-10-14T13:56:38.925Z,8.25
2022-10-14T14:01:42.251Z,7.28
2022-10-14T14:07:03.386Z,6.88
2022-10-14T14:12:12.558Z,7.65
2022-10-14T14:17:25.775Z,9.52
2022-10-14T14:22:31.021Z,7.97
2022-10-14T14:27:34.543Z,7.40
2022-10-14T14:32:37.987Z,7.45
2022-10-14T14:37:55.171Z,8.63
2022-10-14T14:43:02.392Z,9.32
2022-10-14T14:48:07.903Z,8.20
2022-10-14T14:53:23.310Z,9.00
2022-10-14T14:58:37.202Z,8.18
2022-10-14T15:04:15.612Z,7.93
2022-10-14T15:09:28.177Z,9.10
2022-10-14T15:19:45.816Z,9.45
2022-10-14T15:25:08.891Z,9.80
2022-10-14T15:30:39.858Z,9.07
2022-10-14T15:35:47.496Z,9.55
2022-10-14T15:40:54.990Z,9.48
2022-10-14T15:46:00.171Z,10.95
2022-10-14T15:51:04.814Z,10.57
2022-10-14T15:56:08.825Z,10.75
2022-10-14T16:01:21.939Z,10.48
2022-10-14T16:06:25.368Z,10.30
2022-10-14T16:11:31.044Z,10.80
2022-10-14T16:16:42.716Z,10.93
2022-10-14T16:21:47.502Z,11.20
2022-10-14T16:26:54.622Z,11.00
2022-10-14T16:31:59.546Z,11.30
2022-10-14T16:37:03.108Z,11.93
2022-10-14T16:42:06.565Z,11.55
2022-10-14T16:47:12.575Z,10.38
2022-10-14T16:52:19.776Z,12.07
2022-10-14T16:57:23.272Z,10.98
2022-10-14T17:02:28.342Z,11.65
2022-10-14T17:07:50.767Z,12.45
2022-10-14T17:12:54.165Z,12.65
2022-10-14T17:17:57.434Z,11.77
2022-10-14T17:23:16.169Z,12.30
2022-10-14T17:28:20.287Z,11.25
2022-10-14T17:33:23.740Z,12.02
2022-10-14T17:38:29.016Z,12.00
2022-10-14T17:43:32.771Z,13.40
2022-10-14T17:48:36.345Z,12.65
2022-10-14T17:53:40.353Z,12.73
2022-10-14T17:58:43.750Z,12.82
2022-10-14T18:03:47.472Z,13.18
2022-10-14T18:08:56.893Z,13.32
2022-10-14T18:14:02.837Z,13.60
2022-10-14T18:19:07.301Z,13.50
2022-10-14T18:24:24.142Z,13.00
2022-10-14T18:29:40.611Z,14.32
2022-10-14T18:34:45.531Z,13.88
2022-10-14T18:39:48.624Z,14.45
2022-10-14T18:45:08.718Z,12.98
2022-10-14T18:50:12.089Z,14.73
2022-10-14T18:55:27.111Z,13.75
2022-10-14T19:00:34.154Z,14.48
2022-10-14T19:05:52.435Z,13.80
2022-10-14T19:11:07.468Z,13.80
2022-10-14T19:16:22.740Z,13.50
2022-10-14T19:21:26.958Z,13.88
2022-10-14T19:26:33.197Z,13.57
2022-10-14T19:31:37.282Z,14.05
2022-10-14T19:36:42.255Z,14.20
2022-10-14T19:41:46.022Z,13.23
2022-10-14T19:47:03.022Z,12.80
2022-10-14T19:52:06.408Z,12.40
2022-10-14T19:57:10.164Z,13.25
2022-10-14T20:02:13.328Z,13.80
2022-10-14T20:07:16.500Z,12.07
2022-10-14T20:12:20.042Z,13.27
2022-10-14T20:17:24.064Z,12.83
2022-10-14T20:22:27.730Z,13.48
2022-10-14T20:27:31.410Z,13.18
2022-10-14T20:32:35.047Z,13.93
2022-10-14T20:37:38.409Z,13.65
2022-10-14T20:42:56.944Z,14.30
2022-10-14T20:48:00.501Z,13.90
2022-10-14T20:53:03.824Z,13.80
2022-10-14T20:58:20.779Z,14.48
2022-10-14T21:03:24.141Z,14.55
2022-10-14T21:08:39.980Z,14.05
2022-10-14T21:13:48.769Z,14.55
2022-10-14T21:18:57.467Z,13.90
2022-10-14T21:24:01.271Z,14.23
2022-10-14T21:29:05.185Z,14.73
2022-10-14T21:34:11.523Z,14.45
2022-10-14T21:39:16.454Z,13.93
2022-10-14T21:44:21.011Z,14.65
2022-10-14T21:49:24.817Z,14.15
2022-10-14T21:54:28.345Z,14.85
2022-10-14T21:59:31.744Z,14.57
2022-10-14T22:04:38.207Z,14.57
2022-10-14T22:09:42.094Z,13.90
2022-10-14T22:14:51.164Z,14.07
2022-10-14T22:20:03.420Z,13.88
2022-10-14T22:25:19.993Z,13.98
2022-10-14T22:30:23.239Z,14.32
2022-10-14T22:35:27.345Z,15.20
2022-10-14T22:40:30.826Z,14.27
2022-10-14T22:45:34.388Z,14.45
2022-10-14T22:50:49.406Z,14.50
2022-10-14T22:55:54.022Z,14.93
2022-10-14T23:01:05.940Z,13.00
2022-10-14T23:06:12.622Z,15.23
2022-10-14T23:11:19.758Z,15.23
2022-10-14T23:16:27.372Z,13.75
2022-10-14T23:21:35.999Z,13.43
2022-10-14T23:26:39.427Z,13.95
2022-10-14T23:31:54.997Z,13.70
2022-10-14T23:36:58.323Z,13.20
2022-10-14T23:42:01.592Z,14.10
2022-10-14T23:47:06.567Z,13.32
2022-10-14T23:52:12.220Z,13.65
2022-10-14T23:57:16.047Z,14.13
